Etusivu
METAR-TAF:

METAR-TAF

Lentoasemat :

Puerto Plata, Dominikaaninen tasavalta

Leveyspiiri: 19-45N, Pituuspiiri: 070-33W, korkeus merenpinnasta: 15 m

Tämänhetkinen sää

Tämä raportti tehtiin 17 minuuttia sitten, kello 06.00 UTC
tyyntä
Lämpötila 23°C
Kosteus 100%
Ilmanpaine 1015 hPa
Näkyvyys 10 km tai enemmän
Muutamia pilviä 1600 ft:n korkeudessa
Hajanaisia pilviä 30000 ft:n korkeudessa

METAR: MDPP 250600Z 00000KT 9999 FEW016 SCT300 23/23 Q1015

Aika: 02:17 (06:17 UTC)

Sääennuste

Tämä raportti tehtiin 2 tuntia ja 17 minuuttia sitten, kello 04.00 UTC
Ennuste voimassa 25. päivästä klo 06 UTC - 26. päivään klo 06 UTC
Tuuli kn pohjoisesta
Näkyvyys 10 km tai enemmän
Hajanaisia pilviä 1600 ft:n korkeudessa
Todennäköisyys 30%
25. päivästä klo 06 UTC - 25. päivään klo 2 UTC
Hajonneita pilviä 1600 ft:n korkeudessa
Hajonneita pilviä 7000 ft:n korkeudessa

TAF: MDPP 250400Z 2506/2606 00000KT 9999 SCT016 PROB30 2506/252 7000-SH BKN016 BKN070

Säähavainnot ja -ennusteet yli 4000 lentoasemalta (METAR- ja TAF-raportit).

Käytössä olevat sääasemat on merkitty karttaan keltaisilla ja punaisilla pisteillä.

Aseta hiiri pisteen päälle nähdäksesi sääaseman nimen.

Klikkaa sitten nähdäksesi säähavainnot ja -ennusteet.

Kartan vaihtaminen: klikkaa mustalla rastilla varustettuja vihreitä pisteitä, niin voit zoomata sisään; viivalla varustettua vihreää pistettä, niin voit zoomata ulos tai vihreitä nuolia, niin pääset viereisille kartoille.


METAR-TAF: